Time;durP1;ratioP1;P1;durP2;ratioP2;P2;SDS_P1;SDS_P2;PMS_P1;PMS_P2;Temp;Humidity;BMP_temperature;BMP_pressure;BME280_temperature;BME280_humidity;BME280_pressure;Samples;Min_cycle;Max_cycle;Signal;HPM_P1;HPM_P2
2021/06/02 00:00:08;;;;;;;3.25;1.55;;;;;;;11.05;72.71;101810.47;5002585;28;20037;-76
2021/06/02 00:02:38;;;;;;;3.00;1.45;;;;;;;11.09;72.07;101814.53;5007947;28;20026;-75
2021/06/02 00:05:04;;;;;;;2.20;1.52;;;;;;;11.06;71.92;101799.03;5002546;28;20034;-75
2021/06/02 00:07:31;;;;;;;5.88;1.73;;;;;;;10.91;71.96;101796.69;4979411;28;20315;-75
2021/06/02 00:09:57;;;;;;;3.22;1.40;;;;;;;10.85;72.27;101798.94;4995132;28;20124;-76
2021/06/02 00:12:23;;;;;;;3.17;1.33;;;;;;;10.90;72.14;101794.16;5011080;28;20180;-76
2021/06/02 00:14:48;;;;;;;2.75;1.40;;;;;;;10.89;72.04;101801.22;5004204;28;20120;-76
2021/06/02 00:17:16;;;;;;;2.50;1.40;;;;;;;10.83;72.66;101795.63;5007524;28;20049;-76
2021/06/02 00:19:41;;;;;;;3.78;1.40;;;;;;;10.71;72.84;101798.25;5007341;28;20084;-74
2021/06/02 00:22:08;;;;;;;7.47;1.20;;;;;;;10.69;73.14;101801.97;5007769;28;20080;-75
2021/06/02 00:24:36;;;;;;;2.45;1.13;;;;;;;10.61;73.42;101794.69;5000885;28;20343;-74
2021/06/02 00:27:05;;;;;;;1.25;1.13;;;;;;;10.59;73.61;101799.25;5011975;28;20683;-75
2021/06/02 00:29:32;;;;;;;4.72;1.10;;;;;;;10.51;74.00;101805.09;5010815;28;20053;-76
2021/06/02 00:31:59;;;;;;;5.55;1.30;;;;;;;10.46;73.92;101794.13;4988735;28;20037;-73
2021/06/02 00:34:25;;;;;;;2.35;1.20;;;;;;;10.37;75.18;101792.22;5012418;28;20045;-77
2021/06/02 00:36:51;;;;;;;2.28;1.70;;;;;;;10.31;75.06;101801.38;5010202;28;20026;-74
2021/06/02 00:39:17;;;;;;;3.55;1.40;;;;;;;10.35;74.72;101793.28;5007786;28;20057;-74
2021/06/02 00:41:46;;;;;;;1.92;1.27;;;;;;;10.29;75.33;101798.03;5000476;28;20060;-76
2021/06/02 00:44:17;;;;;;;3.03;1.17;;;;;;;10.23;75.34;101802.91;5002099;28;20071;-77
2021/06/02 00:46:44;;;;;;;1.90;1.10;;;;;;;10.26;76.52;101797.41;5010802;28;20225;-75
2021/06/02 00:49:12;;;;;;;5.25;1.30;;;;;;;10.31;75.71;101801.38;5008744;28;20030;-77
2021/06/02 00:51:38;;;;;;;3.42;1.20;;;;;;;10.32;76.16;101802.22;5010831;28;20091;-75
2021/06/02 00:54:05;;;;;;;4.25;1.30;;;;;;;10.34;75.88;101802.94;4991174;28;20038;-74
2021/06/02 00:56:38;;;;;;;2.75;1.00;;;;;;;10.32;75.90;101802.22;5008036;28;20045;-76
2021/06/02 00:59:05;;;;;;;2.42;0.93;;;;;;;10.29;75.55;101794.56;5016964;28;20049;-75
2021/06/02 01:01:34;;;;;;;3.40;1.00;;;;;;;10.27;76.48;101796.47;5013461;28;20033;-76
2021/06/02 01:04:04;;;;;;;4.13;1.10;;;;;;;10.28;75.65;101799.00;4975882;28;20030;-75
2021/06/02 01:06:35;;;;;;;1.40;0.93;;;;;;;10.20;76.30;101805.75;4998460;28;20036;-74
2021/06/02 01:09:04;;;;;;;4.50;1.10;;;;;;;10.18;77.77;101805.06;5002694;28;20041;-76
2021/06/02 01:11:31;;;;;;;1.92;1.05;;;;;;;10.08;76.63;101799.69;5014655;28;20721;-75
2021/06/02 01:13:58;;;;;;;3.30;1.10;;;;;;;10.16;76.82;101812.19;4993494;28;20042;-75
2021/06/02 01:16:28;;;;;;;5.07;1.08;;;;;;;10.17;76.50;101808.59;4996227;28;20119;-75
2021/06/02 01:18:54;;;;;;;3.53;1.08;;;;;;;10.12;76.41;101814.22;5010965;28;20037;-75
2021/06/02 01:21:23;;;;;;;2.10;1.10;;;;;;;10.04;76.86;101809.56;4990733;28;20038;-75
2021/06/02 01:23:51;;;;;;;3.58;1.20;;;;;;;9.98;77.35;101814.41;5006794;28;20034;-76
2021/06/02 01:26:18;;;;;;;4.00;1.02;;;;;;;9.86;78.08;101801.28;5020669;28;20124;-76
2021/06/02 01:28:44;;;;;;;3.30;0.93;;;;;;;9.88;78.50;101803.81;5010347;28;20060;-76
2021/06/02 01:31:15;;;;;;;2.60;1.30;;;;;;;9.82;78.26;101792.00;4996958;28;20037;-75
2021/06/02 01:34:05;;;;;;;2.28;1.10;;;;;;;9.94;78.26;101800.72;4990663;28;20038;-76
2021/06/02 01:36:46;;;;;;;2.30;1.20;;;;;;;9.92;78.40;101797.38;5028204;28;20049;-76
2021/06/02 01:39:43;;;;;;;1.75;1.15;;;;;;;10.03;77.79;101807.06;5017186;28;20034;-76
2021/06/02 01:42:18;;;;;;;6.32;1.40;;;;;;;10.05;77.73;101802.53;5007924;28;20041;-74
2021/06/02 01:45:17;;;;;;;3.65;1.00;;;;;;;10.00;78.55;101809.91;5012313;28;20144;-75
2021/06/02 01:47:50;;;;;;;5.75;1.30;;;;;;;9.91;78.68;101812.28;4991538;28;20049;-74
2021/06/02 01:50:52;;;;;;;3.88;1.30;;;;;;;9.84;79.32;101805.00;5010339;28;20581;-74
2021/06/02 01:53:36;;;;;;;3.97;1.17;;;;;;;9.90;78.56;101810.59;5004204;28;20038;-75
2021/06/02 01:56:14;;;;;;;1.40;1.20;;;;;;;9.84;79.23;101807.63;5006271;28;20034;-74
2021/06/02 01:58:46;;;;;;;3.30;1.10;;;;;;;9.74;79.28;101813.53;4974952;28;20132;-74
2021/06/02 02:01:36;;;;;;;2.30;1.10;;;;;;;9.70;80.21;101817.34;5016236;28;20045;-74
2021/06/02 02:04:39;;;;;;;3.45;1.15;;;;;;;9.73;79.04;101814.47;5008371;28;20080;-75
2021/06/02 02:07:25;;;;;;;8.00;1.25;;;;;;;9.63;80.08;101805.66;5003553;28;20388;-74
2021/06/02 02:10:28;;;;;;;2.85;1.10;;;;;;;9.53;80.61;101810.75;5000902;28;20045;-73
2021/06/02 02:13:02;;;;;;;2.03;1.00;;;;;;;9.46;80.87;101819.16;4995783;28;20037;-77
2021/06/02 02:15:57;;;;;;;4.38;1.10;;;;;;;9.40;80.42;101809.97;5011194;28;20049;-76
2021/06/02 02:18:32;;;;;;;3.72;1.05;;;;;;;9.39;81.27;101808.28;5009945;28;20403;-74
2021/06/02 02:21:27;;;;;;;3.35;1.10;;;;;;;9.30;81.04;101811.59;4993880;28;20068;-75
2021/06/02 02:24:11;;;;;;;3.35;1.20;;;;;;;9.24;81.63;101810.25;5009913;28;20081;-74
2021/06/02 02:26:44;;;;;;;3.60;1.10;;;;;;;9.19;82.10;101814.97;5015536;28;20105;-75
2021/06/02 02:29:37;;;;;;;4.10;1.35;;;;;;;9.22;82.23;101817.38;4994735;28;20051;-74
2021/06/02 02:32:35;;;;;;;2.97;1.38;;;;;;;9.18;82.12;101815.09;4992512;28;20045;-75
2021/06/02 02:35:12;;;;;;;3.55;1.38;;;;;;;9.16;82.79;101812.59;4995828;28;20404;-75
2021/06/02 02:38:06;;;;;;;2.38;1.50;;;;;;;9.10;82.51;101810.44;5007141;28;20077;-76
2021/06/02 02:40:50;;;;;;;4.97;1.48;;;;;;;9.13;82.96;101820.66;4994550;28;20037;-75
2021/06/02 02:43:22;;;;;;;2.53;1.40;;;;;;;9.19;82.87;101812.34;5027463;28;20415;-77
2021/06/02 02:46:17;;;;;;;2.15;1.40;;;;;;;9.23;82.74;101816.44;5003412;28;20041;-76
2021/06/02 02:48:58;;;;;;;4.85;1.40;;;;;;;9.19;83.19;101812.34;4984057;28;20042;-76
2021/06/02 02:51:29;;;;;;;2.97;1.50;;;;;;;9.30;82.50;101825.50;4977893;28;20038;-76
2021/06/02 02:54:04;;;;;;;3.17;1.58;;;;;;;9.27;82.61;101815.28;5022633;28;20112;-76
2021/06/02 02:56:57;;;;;;;2.63;1.35;;;;;;;9.31;82.70;101824.56;5020175;28;20021;-76
2021/06/02 02:59:51;;;;;;;4.53;1.42;;;;;;;9.39;82.63;101823.19;5013116;28;20046;-76
2021/06/02 03:02:25;;;;;;;2.55;1.30;;;;;;;9.42;81.91;101823.78;5013143;28;20177;-75
2021/06/02 03:04:57;;;;;;;2.65;1.50;;;;;;;9.39;82.47;101831.03;4997991;28;20565;-76
2021/06/02 03:07:24;;;;;;;4.93;1.63;;;;;;;9.38;82.79;101832.81;5000587;28;20100;-75
2021/06/02 03:10:14;;;;;;;5.28;1.60;;;;;;;9.36;82.94;101837.31;4989649;28;20289;-76
2021/06/02 03:12:52;;;;;;;7.68;1.70;;;;;;;9.41;82.61;101829.97;5015654;28;20026;-76
2021/06/02 03:15:42;;;;;;;3.53;1.58;;;;;;;9.36;82.73;101826.84;5021727;28;20124;-77
2021/06/02 03:18:18;;;;;;;2.88;1.58;;;;;;;9.47;82.37;101833.91;4982204;28;20065;-75
2021/06/02 03:21:25;;;;;;;2.70;1.40;;;;;;;9.55;82.38;101836.81;5017572;28;20037;-74
2021/06/02 03:23:59;;;;;;;7.07;1.65;;;;;;;9.50;82.51;101831.91;5001927;28;20128;-74
2021/06/02 03:26:33;;;;;;;6.95;1.42;;;;;;;9.45;82.72;101825.34;5024397;28;20557;-75
2021/06/02 03:29:14;;;;;;;5.38;1.60;;;;;;;9.46;82.40;101830.47;5020499;28;20034;-75
2021/06/02 03:31:48;;;;;;;3.63;1.80;;;;;;;9.47;82.97;101837.38;4981319;28;20049;-74
2021/06/02 03:34:14;;;;;;;1.77;1.40;;;;;;;9.43;82.52;101838.53;5019437;28;20678;-75
2021/06/02 03:36:48;;;;;;;5.03;1.45;;;;;;;9.47;83.42;101837.38;5022865;28;20581;-75
2021/06/02 03:39:22;;;;;;;3.40;1.60;;;;;;;9.49;82.72;101838.13;5018162;28;20042;-74
2021/06/02 03:42:07;;;;;;;3.33;1.55;;;;;;;9.51;83.84;101832.75;4978351;28;20033;-77
2021/06/02 03:45:02;;;;;;;4.40;1.55;;;;;;;9.50;82.67;101842.38;4978004;28;20044;-74
2021/06/02 03:48:06;;;;;;;6.57;2.00;;;;;;;9.64;82.04;101838.75;5008929;28;20511;-76
2021/06/02 03:50:52;;;;;;;2.20;1.55;;;;;;;9.79;81.62;101841.19;4986317;28;20061;-76
2021/06/02 03:53:32;;;;;;;5.22;1.60;;;;;;;9.82;81.80;101838.34;4985510;28;20037;-76
2021/06/02 03:56:11;;;;;;;3.22;1.60;;;;;;;9.87;81.43;101847.53;5001319;28;20045;-76
2021/06/02 03:58:57;;;;;;;3.78;1.40;;;;;;;10.03;81.49;101849.81;5024288;28;20037;-76
2021/06/02 04:01:50;;;;;;;5.13;1.60;;;;;;;10.25;79.04;101845.59;5014303;28;20491;-75
2021/06/02 04:04:24;;;;;;;4.32;1.50;;;;;;;10.34;80.43;101847.53;5000137;28;20047;-75
2021/06/02 04:07:01;;;;;;;5.50;1.63;;;;;;;10.33;80.64;101849.31;4993644;28;20042;-75
2021/06/02 04:09:30;;;;;;;3.13;1.60;;;;;;;10.39;79.70;101852.41;5030889;28;20072;-76
2021/06/02 04:11:59;;;;;;;7.50;1.70;;;;;;;10.46;79.71;101854.44;5004844;28;20044;-76
2021/06/02 04:14:35;;;;;;;6.53;1.80;;;;;;;10.64;80.03;101852.19;4999087;28;20506;-75
2021/06/02 04:17:02;;;;;;;4.45;1.48;;;;;;;10.66;78.37;101850.28;5014073;28;20034;-76
2021/06/02 04:19:32;;;;;;;5.85;1.48;;;;;;;10.79;78.82;101847.50;5024751;28;20405;-75
2021/06/02 04:22:04;;;;;;;7.13;1.95;;;;;;;10.85;79.05;101851.44;4994469;28;20042;-75
2021/06/02 04:24:32;;;;;;;3.90;1.88;;;;;;;10.83;79.52;101850.72;5011619;28;20714;-75
2021/06/02 04:26:58;;;;;;;5.93;1.80;;;;;;;10.88;78.47;101853.84;4996063;28;20486;-73
2021/06/02 04:29:25;;;;;;;2.95;1.88;;;;;;;10.94;78.61;101858.59;4991468;28;20034;-75
2021/06/02 04:31:58;;;;;;;5.45;1.95;;;;;;;11.09;77.45;101861.78;5007491;28;20038;-75
2021/06/02 04:34:25;;;;;;;2.83;1.95;;;;;;;11.08;78.31;101860.13;4991917;28;20117;-75
2021/06/02 04:36:56;;;;;;;6.13;2.17;;;;;;;11.06;77.38;101857.63;5008795;28;20034;-72
2021/06/02 04:39:22;;;;;;;3.90;1.90;;;;;;;11.12;78.11;101858.09;4998044;28;20495;-73
2021/06/02 04:41:48;;;;;;;5.30;1.80;;;;;;;11.08;78.53;101849.63;5008851;28;20046;-73
2021/06/02 04:44:16;;;;;;;5.82;2.15;;;;;;;11.12;77.63;101858.94;5008802;28;20052;-74
2021/06/02 04:46:46;;;;;;;6.72;1.73;;;;;;;11.05;78.02;101857.75;4973841;28;20126;-74
2021/06/02 04:49:16;;;;;;;6.60;2.35;;;;;;;11.11;77.85;101870.38;4991595;28;20128;-73
2021/06/02 04:52:00;;;;;;;5.15;1.98;;;;;;;11.17;79.65;101866.41;4988359;28;20069;-73
2021/06/02 04:55:02;;;;;;;3.85;2.00;;;;;;;11.25;77.80;101870.13;5016219;28;20492;-74
2021/06/02 04:57:46;;;;;;;4.77;1.80;;;;;;;11.19;77.28;101870.63;5007211;28;20061;-73
2021/06/02 05:00:37;;;;;;;4.35;2.35;;;;;;;11.16;77.78;101870.84;5002401;28;20450;-74
2021/06/02 05:03:24;;;;;;;3.28;2.00;;;;;;;11.02;78.98;101874.59;5010665;28;20048;-74
2021/06/02 05:06:10;;;;;;;6.47;2.08;;;;;;;11.04;78.80;101874.47;5003279;28;20117;-74
2021/06/02 05:09:00;;;;;;;4.55;2.08;;;;;;;11.00;79.43;101884.38;5018259;28;20608;-74
2021/06/02 05:12:11;;;;;;;5.25;2.33;;;;;;;11.17;78.48;101884.81;4997660;28;20048;-74
2021/06/02 05:15:15;;;;;;;4.93;2.38;;;;;;;11.31;78.07;101881.91;5021307;28;20060;-74
2021/06/02 05:18:16;;;;;;;5.15;2.40;;;;;;;11.49;78.78;101887.50;5005458;28;20029;-73
2021/06/02 05:24:07;;;;;;;4.38;2.00;;;;;;;11.58;77.50;101885.91;4997307;28;20451;-74
2021/06/02 05:27:33;;;;;;;8.18;2.28;;;;;;;11.57;77.14;101894.75;5004432;28;20052;-76
2021/06/02 05:30:23;;;;;;;7.30;2.20;;;;;;;11.63;77.76;101892.44;4981925;28;20069;-74
2021/06/02 05:33:27;;;;;;;4.13;1.85;;;;;;;11.77;76.30;101896.59;5020290;28;20033;-75
2021/06/02 05:36:14;;;;;;;5.25;2.00;;;;;;;12.00;75.97;101893.88;4999598;28;20046;-75
2021/06/02 05:39:04;;;;;;;5.30;2.22;;;;;;;12.22;76.54;101895.53;5019909;28;20033;-75
2021/06/02 05:41:42;;;;;;;6.20;2.13;;;;;;;12.49;75.35;101897.63;5004523;28;20041;-75
2021/06/02 05:44:26;;;;;;;3.70;1.90;;;;;;;12.71;75.07;101895.78;5003176;28;20687;-74
2021/06/02 05:47:10;;;;;;;4.72;2.10;;;;;;;12.92;73.14;101896.56;4992261;28;20069;-74
2021/06/02 05:49:38;;;;;;;3.75;2.28;;;;;;;12.93;72.67;101892.97;4992616;28;20814;-75
2021/06/02 05:52:38;;;;;;;7.75;2.20;;;;;;;13.05;74.19;101896.31;4973310;28;20516;-74
2021/06/02 05:55:34;;;;;;;4.63;2.00;;;;;;;13.17;73.96;101895.25;5024455;28;20495;-76
2021/06/02 05:58:37;;;;;;;3.72;1.92;;;;;;;13.34;71.64;101898.22;5006952;28;20037;-74
2021/06/02 06:01:21;;;;;;;4.97;1.92;;;;;;;13.51;71.16;101894.09;5001569;28;20064;-74
2021/06/02 06:04:26;;;;;;;4.80;1.90;;;;;;;13.60;70.18;101894.09;5003980;28;20036;-74
2021/06/02 06:07:02;;;;;;;6.10;2.00;;;;;;;13.70;70.58;101902.00;4972145;28;20052;-75
2021/06/02 06:10:01;;;;;;;5.68;1.90;;;;;;;13.86;69.79;101896.16;5006923;28;20081;-74
2021/06/02 06:12:45;;;;;;;8.27;2.15;;;;;;;13.96;69.44;101899.63;5007624;28;20068;-75
2021/06/02 06:15:32;;;;;;;3.42;1.92;;;;;;;13.90;69.33;101894.06;4976272;28;20055;-72
2021/06/02 06:18:23;;;;;;;6.18;1.80;;;;;;;14.02;69.51;101898.22;5009736;28;20048;-73
2021/06/02 06:21:26;;;;;;;4.65;1.88;;;;;;;14.30;68.81;101898.34;5007418;28;20049;-74
2021/06/02 06:24:02;;;;;;;4.45;2.00;;;;;;;14.23;69.64;101905.16;5011720;28;20128;-75
2021/06/02 06:26:43;;;;;;;4.95;1.95;;;;;;;14.11;68.81;101905.31;5012524;28;20496;-75
2021/06/02 06:29:51;;;;;;;8.95;2.30;;;;;;;13.81;68.50;101896.59;5016268;28;20128;-74
2021/06/02 06:32:18;;;;;;;6.32;2.00;;;;;;;13.67;69.12;101891.72;5012563;28;20499;-76
2021/06/02 06:34:44;;;;;;;3.78;1.88;;;;;;;13.61;69.61;101894.91;5013518;28;20103;-74
2021/06/02 06:37:12;;;;;;;4.65;2.13;;;;;;;13.88;71.85;101902.16;5014847;28;20030;-75
2021/06/02 06:39:53;;;;;;;4.90;2.22;;;;;;;14.00;69.33;101901.00;5014290;28;20411;-75
2021/06/02 06:42:30;;;;;;;6.28;2.00;;;;;;;14.02;69.24;101909.59;5015417;28;20045;-73
2021/06/02 06:45:16;;;;;;;6.00;1.90;;;;;;;14.12;68.80;101911.41;5009349;28;20033;-75
2021/06/02 06:47:44;;;;;;;7.60;2.05;;;;;;;14.35;68.30;101906.63;5009530;28;20034;-75
2021/06/02 06:50:12;;;;;;;3.80;2.03;;;;;;;14.56;66.13;101904.63;5011909;28;20033;-74
2021/06/02 06:52:41;;;;;;;4.30;1.95;;;;;;;14.71;67.10;101905.03;5026904;28;20029;-74
2021/06/02 06:55:08;;;;;;;8.40;2.10;;;;;;;14.87;66.13;101906.22;5026420;28;20098;-74
2021/06/02 06:57:35;;;;;;;5.45;1.80;;;;;;;14.97;68.06;101899.91;5012449;28;20083;-76
2021/06/02 07:00:03;;;;;;;6.28;2.00;;;;;;;15.12;67.20;101894.09;4974566;28;20034;-75
2021/06/02 07:02:29;;;;;;;3.60;2.17;;;;;;;14.92;67.89;101898.69;5021188;28;20152;-75
2021/06/02 07:04:57;;;;;;;6.03;2.55;;;;;;;14.79;66.21;101894.56;5003111;28;20045;-74
2021/06/02 07:07:26;;;;;;;4.45;1.83;;;;;;;14.78;66.94;101887.59;5004554;28;20467;-75
2021/06/02 07:09:52;;;;;;;5.15;2.25;;;;;;;15.08;68.06;101887.47;5001426;28;20052;-75
2021/06/02 07:12:23;;;;;;;5.95;2.15;;;;;;;15.17;67.47;101883.94;5009251;28;20509;-76
2021/06/02 07:14:50;;;;;;;3.38;1.70;;;;;;;15.33;64.39;101883.25;4976933;28;20034;-75
2021/06/02 07:17:21;;;;;;;9.18;2.30;;;;;;;15.54;64.26;101881.16;5005173;28;20034;-74
2021/06/02 07:19:53;;;;;;;6.35;2.05;;;;;;;15.74;65.79;101881.03;5012150;28;20030;-75
2021/06/02 07:22:23;;;;;;;6.13;2.33;;;;;;;15.83;62.07;101880.09;4995418;28;20171;-75
2021/06/02 07:24:53;;;;;;;4.22;1.60;;;;;;;15.70;63.29;101892.88;5028068;28;20282;-75
2021/06/02 07:27:19;;;;;;;4.22;1.90;;;;;;;15.69;64.12;101893.84;5012605;28;20038;-75
2021/06/02 07:29:45;;;;;;;7.38;2.22;;;;;;;15.64;63.56;101885.56;5021814;28;20157;-75
2021/06/02 07:32:10;;;;;;;5.18;2.10;;;;;;;15.68;63.92;101879.78;5011409;28;20487;-75
2021/06/02 07:34:36;;;;;;;4.55;2.00;;;;;;;15.75;63.33;101880.88;4993730;28;20136;-76
2021/06/02 07:37:02;;;;;;;5.18;1.70;;;;;;;16.20;63.40;101891.44;5013047;28;20080;-78
2021/06/02 07:39:28;;;;;;;4.32;1.77;;;;;;;16.39;63.44;101887.75;5010529;28;20057;-76
2021/06/02 07:41:53;;;;;;;3.97;1.75;;;;;;;16.42;62.71;101884.81;5024368;28;20339;-75
2021/06/02 07:44:20;;;;;;;3.33;1.70;;;;;;;16.59;62.79;101873.28;4979279;28;20038;-77
2021/06/02 07:46:46;;;;;;;5.63;2.05;;;;;;;16.73;60.81;101877.19;5011221;28;20041;-75
2021/06/02 07:49:12;;;;;;;5.72;1.98;;;;;;;16.55;59.13;101887.84;4993675;28;20041;-74
2021/06/02 07:51:37;;;;;;;4.63;1.90;;;;;;;16.33;64.57;101886.56;5014543;28;20045;-75
2021/06/02 07:54:06;;;;;;;7.10;2.28;;;;;;;16.14;63.08;101885.81;5014003;28;20063;-75
2021/06/02 07:56:31;;;;;;;3.38;1.83;;;;;;;16.35;60.75;101895.19;4995725;28;20050;-76
2021/06/02 07:58:57;;;;;;;7.18;1.88;;;;;;;16.43;61.00;101894.41;5010929;28;20056;-74
2021/06/02 08:01:24;;;;;;;5.18;2.00;;;;;;;16.26;60.83;101886.38;4977802;28;20069;-76
2021/06/02 08:03:50;;;;;;;4.55;1.65;;;;;;;16.13;59.67;101881.47;5019213;28;20035;-75
2021/06/02 08:06:16;;;;;;;3.03;1.70;;;;;;;16.08;58.62;101894.34;5012252;28;20037;-75
2021/06/02 08:08:41;;;;;;;3.45;1.67;;;;;;;16.20;59.34;101888.78;4995017;28;20815;-73
2021/06/02 08:11:07;;;;;;;5.32;1.60;;;;;;;16.10;60.91;101888.91;4994947;28;20046;-74
2021/06/02 08:13:33;;;;;;;3.80;1.90;;;;;;;16.27;60.03;101881.91;5007899;28;20060;-74
2021/06/02 08:16:00;;;;;;;5.82;1.77;;;;;;;16.53;59.94;101882.69;4990061;28;20542;-74
2021/06/02 08:18:25;;;;;;;5.18;1.90;;;;;;;16.53;60.07;101882.69;5015626;28;20045;-74
2021/06/02 08:20:51;;;;;;;6.28;1.85;;;;;;;16.78;57.92;101889.94;5009912;28;20052;-75
2021/06/02 08:23:17;;;;;;;7.75;1.80;;;;;;;17.13;57.03;101884.44;5014858;28;20038;-74
2021/06/02 08:25:42;;;;;;;8.68;2.00;;;;;;;17.27;57.96;101885.66;5004801;28;20113;-75
2021/06/02 08:28:09;;;;;;;5.07;1.52;;;;;;;17.56;57.13;101881.72;5010076;28;20522;-73
2021/06/02 08:30:34;;;;;;;3.47;1.55;;;;;;;17.71;55.20;101877.41;4993465;28;20034;-75
2021/06/02 08:33:00;;;;;;;5.32;2.00;;;;;;;17.80;55.75;101874.72;4990596;28;20045;-75
2021/06/02 08:35:26;;;;;;;3.03;1.60;;;;;;;18.00;55.32;101880.56;5008873;28;20032;-76
2021/06/02 08:37:55;;;;;;;3.97;1.70;;;;;;;17.94;53.76;101879.41;5009005;28;20574;-77
2021/06/02 08:40:21;;;;;;;3.72;1.88;;;;;;;18.02;54.22;101878.56;4993042;28;20037;-77
2021/06/02 08:42:50;;;;;;;4.95;2.00;;;;;;;18.27;54.37;101882.84;4994460;28;20052;-75
2021/06/02 08:45:17;;;;;;;6.57;1.83;;;;;;;18.46;53.15;101863.03;5002735;28;20118;-75
2021/06/02 08:47:44;;;;;;;3.70;1.70;;;;;;;18.67;52.99;101877.59;4991718;28;20533;-77
2021/06/02 08:50:13;;;;;;;3.58;1.60;;;;;;;18.51;51.67;101874.97;5008394;28;20034;-74
2021/06/02 08:52:40;;;;;;;5.25;1.63;;;;;;;18.24;54.18;101885.00;4993373;28;20042;-75
2021/06/02 08:55:08;;;;;;;6.25;1.40;;;;;;;18.05;53.59;101884.38;4991646;28;20037;-77
2021/06/02 08:57:39;;;;;;;5.45;1.85;;;;;;;17.87;54.02;101881.06;4992661;28;20038;-76
2021/06/02 09:00:07;;;;;;;4.78;1.73;;;;;;;17.88;53.56;101880.91;5009704;28;20042;-77
2021/06/02 09:02:33;;;;;;;3.13;1.70;;;;;;;17.68;55.28;101880.38;5011618;28;20118;-75
2021/06/02 09:05:00;;;;;;;7.97;2.00;;;;;;;17.83;57.22;101877.06;5013486;28;20069;-76
2021/06/02 09:07:28;;;;;;;5.85;1.75;;;;;;;18.28;53.68;101873.88;4980873;28;20057;-76
2021/06/02 09:09:54;;;;;;;6.22;1.98;;;;;;;18.53;53.69;101879.09;5009874;28;20036;-75
2021/06/02 09:12:41;;;;;;;4.28;1.67;;;;;;;18.65;51.18;101882.25;5013257;28;20048;-73
2021/06/02 09:15:19;;;;;;;3.65;1.58;;;;;;;18.53;52.06;101868.47;4994498;28;20042;-76
2021/06/02 09:17:54;;;;;;;3.72;1.20;;;;;;;18.68;51.71;101877.41;5011451;28;20045;-75
2021/06/02 09:20:44;;;;;;;3.35;1.48;;;;;;;18.98;50.43;101882.09;5007554;28;20073;-75
2021/06/02 09:23:28;;;;;;;3.92;1.60;;;;;;;18.94;50.32;101873.66;5005295;28;20065;-78
2021/06/02 09:26:18;;;;;;;3.33;1.60;;;;;;;18.41;52.50;101868.03;5006385;28;20040;-76
2021/06/02 09:28:47;;;;;;;3.60;1.55;;;;;;;18.78;54.84;101869.22;4979821;28;20042;-76
2021/06/02 09:31:19;;;;;;;2.75;1.50;;;;;;;19.05;51.46;101865.28;5010329;28;20065;-78
2021/06/02 09:33:45;;;;;;;4.72;1.38;;;;;;;19.15;51.98;101866.88;5002872;28;20038;-76
2021/06/02 09:36:11;;;;;;;5.30;1.42;;;;;;;19.30;51.14;101866.97;4996637;28;20049;-76
2021/06/02 09:38:37;;;;;;;5.00;1.73;;;;;;;19.47;49.40;101871.16;4994980;28;20539;-76
2021/06/02 09:41:02;;;;;;;4.97;1.30;;;;;;;19.70;48.22;101859.66;4994238;28;20049;-77
2021/06/02 09:43:34;;;;;;;6.53;1.58;;;;;;;19.45;50.47;101862.53;4992167;28;20038;-75
2021/06/02 09:46:09;;;;;;;4.45;1.40;;;;;;;19.77;49.81;101868.63;5008656;28;20040;-76
2021/06/02 09:48:49;;;;;;;2.97;1.20;;;;;;;20.00;48.02;101869.41;5013370;28;20057;-78
2021/06/02 09:51:33;;;;;;;4.50;1.30;;;;;;;19.57;48.10;101870.91;5012138;28;20558;-75
2021/06/02 09:54:00;;;;;;;5.35;1.70;;;;;;;19.40;49.96;101862.22;5011099;28;20049;-75
2021/06/02 09:56:36;;;;;;;3.80;1.23;;;;;;;19.67;47.77;101878.66;4996200;28;20042;-75
2021/06/02 09:59:06;;;;;;;3.70;1.67;;;;;;;19.45;48.26;101871.31;4984950;28;20046;-75
2021/06/02 10:02:14;;;;;;;3.40;1.40;;;;;;;18.79;49.81;101880.69;5010203;28;20041;-75
2021/06/02 10:04:40;;;;;;;2.78;1.45;;;;;;;18.90;50.46;101876.84;4994658;28;20046;-76
2021/06/02 10:07:20;;;;;;;2.88;1.50;;;;;;;19.16;51.73;101860.59;5010166;28;20068;-74
2021/06/02 10:09:47;;;;;;;1.90;1.45;;;;;;;19.34;53.44;101873.56;5012276;28;20038;-77
2021/06/02 10:12:16;;;;;;;2.90;1.35;;;;;;;19.18;50.36;101861.22;4996754;28;20030;-77
2021/06/02 10:14:59;;;;;;;2.60;1.30;;;;;;;19.22;49.30;101865.19;5002996;28;20038;-76
2021/06/02 10:17:31;;;;;;;6.90;1.70;;;;;;;19.17;50.72;101857.72;5000255;28;20133;-78
2021/06/02 10:20:06;;;;;;;4.95;1.60;;;;;;;19.19;50.09;101854.88;4997501;28;20842;-76
2021/06/02 10:22:36;;;;;;;2.55;1.60;;;;;;;19.30;50.68;101851.00;5015616;28;20104;-76
2021/06/02 10:25:06;;;;;;;3.50;1.60;;;;;;;20.09;52.35;101843.50;4999327;28;20042;-76
2021/06/02 10:27:32;;;;;;;6.47;1.40;;;;;;;19.94;52.41;101845.34;5014218;28;20050;-76
2021/06/02 10:29:58;;;;;;;4.97;1.58;;;;;;;20.12;49.09;101848.47;5001382;28;20161;-76
2021/06/02 10:32:26;;;;;;;5.47;1.48;;;;;;;19.74;48.96;101848.53;4979169;28;20030;-76
2021/06/02 10:34:54;;;;;;;9.25;1.92;;;;;;;19.24;50.88;101844.56;5014154;28;20492;-76
2021/06/02 10:37:22;;;;;;;5.93;1.80;;;;;;;19.17;54.59;101848.94;5015239;28;20207;-76
2021/06/02 10:39:59;;;;;;;4.20;1.63;;;;;;;19.00;50.89;101842.88;5011130;28;20053;-75
2021/06/02 10:42:57;;;;;;;4.75;1.70;;;;;;;19.10;54.54;101846.16;5019401;28;20087;-77
2021/06/02 10:45:28;;;;;;;6.22;1.67;;;;;;;19.20;50.44;101845.91;4996893;28;20038;-76
2021/06/02 10:47:57;;;;;;;7.03;1.70;;;;;;;19.10;51.67;101848.81;5029387;28;20096;-77
2021/06/02 10:50:31;;;;;;;5.13;1.67;;;;;;;19.25;50.68;101844.38;4995354;28;20040;-76
2021/06/02 10:52:59;;;;;;;3.45;1.60;;;;;;;19.18;50.36;101845.28;5012592;28;20045;-77
2021/06/02 10:55:35;;;;;;;5.80;1.60;;;;;;;19.08;52.73;101840.19;5011971;28;20471;-77
2021/06/02 10:58:21;;;;;;;4.75;1.58;;;;;;;19.99;48.86;101845.63;5011492;28;20042;-75
2021/06/02 11:01:07;;;;;;;7.63;1.60;;;;;;;20.52;47.87;101842.88;5011327;28;20046;-75
2021/06/02 11:03:35;;;;;;;3.65;1.63;;;;;;;20.96;47.24;101848.16;4995942;28;20038;-77
2021/06/02 11:06:13;;;;;;;3.67;1.50;;;;;;;21.11;46.24;101837.41;5013380;28;20090;-77
2021/06/02 11:08:51;;;;;;;3.88;1.80;;;;;;;21.17;46.58;101838.47;5011976;28;20041;-76
2021/06/02 11:11:30;;;;;;;6.72;2.10;;;;;;;21.30;44.96;101837.78;5014905;28;20049;-76
2021/06/02 11:14:15;;;;;;;5.72;1.90;;;;;;;21.85;45.25;101841.56;4984666;28;20063;-77
2021/06/02 11:17:09;;;;;;;3.08;1.83;;;;;;;22.15;42.00;101849.34;4987126;28;20037;-77
2021/06/02 11:19:38;;;;;;;4.35;1.70;;;;;;;21.97;43.28;101845.34;5014649;28;20049;-74
2021/06/02 11:22:08;;;;;;;6.53;2.10;;;;;;;21.78;44.67;101840.69;5015392;28;20073;-75
2021/06/02 11:24:40;;;;;;;7.20;2.00;;;;;;;21.78;43.67;101838.84;4999789;28;20030;-76
2021/06/02 11:27:15;;;;;;;3.83;1.90;;;;;;;21.70;44.89;101838.16;5032091;28;20038;-77
2021/06/02 11:29:48;;;;;;;6.10;2.20;;;;;;;21.95;44.94;101841.22;5023814;28;20038;-76
2021/06/02 11:32:17;;;;;;;5.30;2.15;;;;;;;22.02;44.17;101842.09;5021089;28;20095;-76
2021/06/02 11:34:44;;;;;;;4.78;1.90;;;;;;;22.19;45.20;101844.44;5000787;28;20038;-76
2021/06/02 11:37:13;;;;;;;6.82;2.47;;;;;;;21.92;45.38;101838.94;5016774;28;20060;-76
2021/06/02 11:39:40;;;;;;;6.57;2.50;;;;;;;22.03;44.72;101837.56;5015694;28;20049;-76
2021/06/02 11:42:07;;;;;;;5.38;2.28;;;;;;;22.44;47.04;101842.16;4992028;28;20049;-75
2021/06/02 11:44:35;;;;;;;3.22;2.20;;;;;;;22.35;45.01;101828.94;4998462;28;20056;-75
2021/06/02 11:47:03;;;;;;;5.88;2.30;;;;;;;22.07;49.04;101834.31;4996221;28;20030;-74
2021/06/02 11:49:29;;;;;;;3.72;1.90;;;;;;;21.81;45.38;101836.81;5014817;28;20038;-76
2021/06/02 11:52:04;;;;;;;4.00;2.90;;;;;;;21.92;46.04;101834.41;5014635;28;20141;-77
2021/06/02 11:54:47;;;;;;;3.97;2.40;;;;;;;22.04;44.75;101842.72;5015785;28;20037;-76
2021/06/02 11:57:28;;;;;;;3.25;1.90;;;;;;;21.70;45.45;101844.34;4997978;28;20034;-75
2021/06/02 11:59:56;;;;;;;3.30;1.98;;;;;;;21.88;45.43;101841.16;5001536;28;20107;-77
2021/06/02 12:02:24;;;;;;;3.40;2.00;;;;;;;22.06;46.55;101847.88;4986608;28;20046;-76
2021/06/02 12:04:53;;;;;;;5.38;2.38;;;;;;;22.09;45.17;101834.94;4998678;28;20042;-77
2021/06/02 12:07:27;;;;;;;3.63;2.22;;;;;;;22.14;45.19;101842.38;5015747;28;20047;-76